createdAt,value
2022-09-02T00:02:08.103Z,98782.06
2022-09-02T00:04:34.592Z,98789.31
2022-09-02T00:07:01.171Z,98781.69
2022-09-02T00:09:27.949Z,98781.69
2022-09-02T00:11:57.911Z,98771.81
2022-09-02T00:14:31.681Z,98775.97
2022-09-02T00:16:58.179Z,98767.13
2022-09-02T00:19:25.739Z,98769.81
2022-09-02T00:21:54.610Z,98772.97
2022-09-02T00:24:23.014Z,98770.28
2022-09-02T00:26:49.984Z,98765.38
2022-09-02T00:29:17.504Z,98771.34
2022-09-02T00:31:45.796Z,98769.50
2022-09-02T00:34:13.096Z,98763.09
2022-09-02T00:36:39.608Z,98762.06
2022-09-02T00:39:07.291Z,98760.84
2022-09-02T00:41:33.940Z,98763.34
2022-09-02T00:44:07.578Z,98754.88
2022-09-02T00:46:34.620Z,98753.84
2022-09-02T00:49:12.490Z,98755.47
2022-09-02T00:51:44.638Z,98753.22
2022-09-02T00:54:12.576Z,98756.31
2022-09-02T00:56:43.148Z,98753.66
2022-09-02T00:59:28.841Z,98752.41
2022-09-02T01:01:59.306Z,98753.03
2022-09-02T01:04:25.947Z,98751.41
2022-09-02T01:06:52.600Z,98755.31
2022-09-02T01:09:19.427Z,98755.94
2022-09-02T01:11:49.011Z,98748.50
2022-09-02T01:14:16.598Z,98757.78
2022-09-02T01:16:50.204Z,98752.19
2022-09-02T01:19:25.737Z,98755.50
2022-09-02T01:21:54.820Z,98751.78
2022-09-02T01:24:24.892Z,98749.31
2022-09-02T01:26:56.430Z,98755.09
2022-09-02T01:29:23.560Z,98746.41
2022-09-02T01:31:50.547Z,98743.53
2022-09-02T01:34:18.145Z,98739.38
2022-09-02T01:36:45.175Z,98737.81
2022-09-02T01:39:13.795Z,98731.69
2022-09-02T01:41:40.530Z,98728.16
2022-09-02T01:44:08.052Z,98725.94
2022-09-02T01:46:35.202Z,98728.19
2022-09-02T01:49:01.723Z,98717.09
2022-09-02T01:51:29.033Z,98718.72
2022-09-02T01:53:56.177Z,98718.56
2022-09-02T01:56:22.910Z,98717.69
2022-09-02T01:58:50.755Z,98721.34
2022-09-02T02:01:19.540Z,98722.91
2022-09-02T02:03:46.242Z,98725.66
2022-09-02T02:06:15.765Z,98733.53
2022-09-02T02:08:42.801Z,98731.22
2022-09-02T02:11:09.893Z,98731.13
2022-09-02T02:13:36.868Z,98737.41
2022-09-02T02:16:04.500Z,98734.00
2022-09-02T02:18:31.289Z,98734.66
2022-09-02T02:20:57.815Z,98738.31
2022-09-02T02:23:26.651Z,98737.94
2022-09-02T02:25:54.426Z,98736.13
2022-09-02T02:28:23.190Z,98738.19
2022-09-02T02:30:49.901Z,98728.94
2022-09-02T02:33:16.640Z,98734.47
2022-09-02T02:35:43.671Z,98732.38
2022-09-02T02:38:10.164Z,98729.56
2022-09-02T02:40:41.699Z,98724.75
2022-09-02T02:43:08.771Z,98724.97
2022-09-02T02:45:38.329Z,98725.31
2022-09-02T02:48:07.208Z,98721.13
2022-09-02T02:50:33.812Z,98714.34
2022-09-02T02:53:00.349Z,98713.50
2022-09-02T02:55:32.985Z,98715.50
2022-09-02T02:57:59.843Z,98715.81
2022-09-02T03:00:29.055Z,98708.69
2022-09-02T03:02:56.958Z,98704.72
2022-09-02T03:05:23.776Z,98706.41
2022-09-02T03:07:50.223Z,98714.66
2022-09-02T03:10:17.776Z,98706.53
2022-09-02T03:12:46.081Z,98705.09
2022-09-02T03:15:15.970Z,98704.63
2022-09-02T03:17:43.920Z,98706.03
2022-09-02T03:20:17.372Z,98705.75
2022-09-02T03:22:48.181Z,98702.16
2022-09-02T03:25:17.808Z,98697.84
2022-09-02T03:27:44.576Z,98705.03
2022-09-02T03:30:16.025Z,98704.34
2022-09-02T03:32:43.539Z,98698.59
2022-09-02T03:35:15.274Z,98698.28
2022-09-02T03:37:42.185Z,98707.47
2022-09-02T03:40:12.109Z,98704.47
2022-09-02T03:42:38.813Z,98702.69
2022-09-02T03:45:09.466Z,98701.03
2022-09-02T03:47:37.006Z,98700.91
2022-09-02T03:50:04.841Z,98700.13
2022-09-02T03:52:32.516Z,98701.78
2022-09-02T03:54:59.011Z,98698.28
2022-09-02T03:57:25.388Z,98700.75
2022-09-02T03:59:52.551Z,98703.50
2022-09-02T04:02:19.287Z,98701.63
2022-09-02T04:04:45.873Z,98699.41
2022-09-02T04:07:12.905Z,98706.09
2022-09-02T04:09:42.383Z,98700.59
2022-09-02T04:12:13.556Z,98693.41
2022-09-02T04:14:40.413Z,98699.31
2022-09-02T04:17:07.112Z,98700.66
2022-09-02T04:19:33.646Z,98699.38
2022-09-02T04:22:00.200Z,98702.50
2022-09-02T04:24:26.638Z,98697.19
2022-09-02T04:26:53.277Z,98705.47
2022-09-02T04:29:19.651Z,98697.63
2022-09-02T04:31:46.209Z,98699.13
2022-09-02T04:34:14.011Z,98705.06
2022-09-02T04:36:40.661Z,98707.00
2022-09-02T04:39:07.196Z,98697.47
2022-09-02T04:41:36.783Z,98698.38
2022-09-02T04:44:04.078Z,98691.69
2022-09-02T04:46:34.771Z,98695.41
2022-09-02T04:49:02.559Z,98696.31
2022-09-02T04:51:29.282Z,98694.16
2022-09-02T04:53:55.639Z,98688.56
2022-09-02T04:56:26.793Z,98685.06
2022-09-02T04:58:54.800Z,98684.59
2022-09-02T05:01:25.295Z,98690.78
2022-09-02T05:03:52.970Z,98691.25
2022-09-02T05:06:27.334Z,98689.78
2022-09-02T05:08:56.689Z,98694.97
2022-09-02T05:11:26.720Z,98698.13
2022-09-02T05:13:53.180Z,98699.25
2022-09-02T05:16:25.069Z,98695.78
2022-09-02T05:18:55.359Z,98699.97
2022-09-02T05:21:22.209Z,98703.19
2022-09-02T05:23:49.731Z,98698.66
2022-09-02T05:26:16.500Z,98704.84
2022-09-02T05:28:45.878Z,98700.97
2022-09-02T05:31:21.019Z,98705.28
2022-09-02T05:33:48.513Z,98701.72
2022-09-02T05:36:22.468Z,98700.53
2022-09-02T05:38:49.380Z,98704.63
2022-09-02T05:41:23.610Z,98698.78
2022-09-02T05:43:52.711Z,98703.34
2022-09-02T05:46:22.299Z,98705.38
2022-09-02T05:48:57.716Z,98700.38
2022-09-02T05:51:24.775Z,98702.97
2022-09-02T05:53:59.921Z,98705.59
2022-09-02T05:56:27.143Z,98708.81
2022-09-02T05:58:56.331Z,98703.50
2022-09-02T06:01:23.907Z,98705.50
2022-09-02T06:03:51.118Z,98703.31
2022-09-02T06:06:18.637Z,98694.97
2022-09-02T06:08:45.166Z,98707.06
2022-09-02T06:11:12.889Z,98704.50
2022-09-02T06:13:42.416Z,98701.25
2022-09-02T06:16:09.620Z,98696.75
2022-09-02T06:18:37.662Z,98698.38
2022-09-02T06:21:06.018Z,98696.03
2022-09-02T06:23:36.176Z,98696.78
2022-09-02T06:26:03.013Z,98695.75
2022-09-02T06:28:29.664Z,98698.22
2022-09-02T06:30:56.739Z,98694.25
2022-09-02T06:33:24.091Z,98700.78
2022-09-02T06:35:50.585Z,98695.06
2022-09-02T06:38:17.770Z,98696.72
2022-09-02T06:40:53.096Z,98693.66
2022-09-02T06:43:21.831Z,98687.91
2022-09-02T06:45:48.662Z,98689.66
2022-09-02T06:48:16.745Z,98698.84
2022-09-02T06:50:45.763Z,98704.59
2022-09-02T06:53:13.210Z,98699.81
2022-09-02T06:55:42.458Z,98692.09
2022-09-02T06:58:12.907Z,98693.78
2022-09-02T07:00:40.570Z,98685.06
2022-09-02T07:03:08.439Z,98694.56
2022-09-02T07:05:36.036Z,98692.06
2022-09-02T07:08:04.999Z,98687.41
2022-09-02T07:10:32.884Z,98697.13
2022-09-02T07:12:59.564Z,98694.22
2022-09-02T07:15:26.531Z,98696.16
2022-09-02T07:17:54.200Z,98689.47
2022-09-02T07:20:21.076Z,98697.84
2022-09-02T07:22:48.707Z,98683.78
2022-09-02T07:25:16.835Z,98680.00
2022-09-02T07:27:43.338Z,98687.19
2022-09-02T07:30:13.211Z,98680.75
2022-09-02T07:32:40.444Z,98685.56
2022-09-02T07:35:08.969Z,98678.00
2022-09-02T07:37:44.662Z,98673.19
2022-09-02T07:40:12.669Z,98683.72
2022-09-02T07:42:40.167Z,98686.19
2022-09-02T07:45:07.107Z,98672.09
2022-09-02T07:47:33.847Z,98672.34
2022-09-02T07:50:20.139Z,98664.16
2022-09-02T07:52:47.319Z,98677.00
2022-09-02T07:55:15.336Z,98674.50
2022-09-02T07:57:47.480Z,98678.41
2022-09-02T08:00:17.166Z,98672.41
2022-09-02T08:02:46.986Z,98671.06
2022-09-02T08:05:13.905Z,98676.75
2022-09-02T08:07:40.669Z,98672.75
2022-09-02T08:10:08.678Z,98671.19
2022-09-02T08:12:36.123Z,98675.25
2022-09-02T08:15:05.838Z,98671.69
2022-09-02T08:17:32.659Z,98678.69
2022-09-02T08:19:59.414Z,98675.75
2022-09-02T08:22:26.311Z,98679.91
2022-09-02T08:24:53.127Z,98677.09
2022-09-02T08:27:19.596Z,98675.22
2022-09-02T08:29:46.135Z,98675.50
2022-09-02T08:32:15.469Z,98686.94
2022-09-02T08:34:41.985Z,98686.19
2022-09-02T08:37:09.487Z,98678.44
2022-09-02T08:39:35.975Z,98675.81
2022-09-02T08:42:24.366Z,98675.47
2022-09-02T08:45:05.554Z,98676.19
2022-09-02T08:47:35.626Z,98682.56
2022-09-02T08:50:10.556Z,98678.47
2022-09-02T08:52:43.305Z,98670.00
2022-09-02T08:55:21.584Z,98692.03
2022-09-02T08:57:48.076Z,98675.38
2022-09-02T09:00:16.238Z,98681.31
2022-09-02T09:03:04.917Z,98677.72
2022-09-02T09:05:56.279Z,98673.78
2022-09-02T09:08:47.933Z,98670.53
2022-09-02T09:11:44.473Z,98677.28
2022-09-02T09:14:23.031Z,98677.63
2022-09-02T09:17:19.024Z,98677.38
2022-09-02T09:19:52.373Z,98673.84
2022-09-02T09:22:21.100Z,98668.16
2022-09-02T09:24:52.865Z,98676.28
2022-09-02T09:27:21.842Z,98667.59
2022-09-02T09:29:51.056Z,98666.25
2022-09-02T09:32:26.006Z,98654.28
2022-09-02T09:34:52.365Z,98661.66
2022-09-02T09:37:40.917Z,98655.13
2022-09-02T09:40:19.504Z,98654.03
2022-09-02T09:42:49.843Z,98651.84
2022-09-02T09:45:33.456Z,98659.94
2022-09-02T09:48:18.051Z,98655.63
2022-09-02T09:50:46.479Z,98647.06
2022-09-02T09:53:35.128Z,98657.78
2022-09-02T09:56:07.096Z,98649.63
2022-09-02T09:58:44.969Z,98648.13
2022-09-02T10:01:12.467Z,98654.41
2022-09-02T10:03:56.172Z,98650.88
2022-09-02T10:06:29.608Z,98647.50
2022-09-02T10:09:16.126Z,98646.47
2022-09-02T10:12:03.871Z,98644.41
2022-09-02T10:14:34.911Z,98646.88
2022-09-02T10:17:25.311Z,98657.09
2022-09-02T10:20:12.320Z,98643.13
2022-09-02T10:23:00.871Z,98637.13
2022-09-02T10:29:07.573Z,98645.69
2022-09-02T10:31:49.360Z,98630.16
2022-09-02T10:34:24.936Z,98641.72
2022-09-02T10:37:20.138Z,98651.47
2022-09-02T10:40:07.919Z,98629.63
2022-09-02T10:43:07.250Z,98637.19
2022-09-02T10:45:47.281Z,98627.28
2022-09-02T10:48:32.371Z,98615.81
2022-09-02T10:51:18.760Z,98614.50
2022-09-02T10:53:57.383Z,98619.13
2022-09-02T10:56:28.048Z,98614.97
2022-09-02T10:59:09.755Z,98613.69
2022-09-02T11:01:45.045Z,98605.94
2022-09-02T11:04:29.652Z,98604.16
2022-09-02T11:07:02.921Z,98597.00
2022-09-02T11:09:50.856Z,98589.59
2022-09-02T11:12:24.215Z,98585.19
2022-09-02T11:15:10.247Z,98580.06
2022-09-02T11:17:42.417Z,98573.84
2022-09-02T11:20:40.689Z,98586.72
2022-09-02T11:23:17.839Z,98582.94
2022-09-02T11:25:59.125Z,98566.97
2022-09-02T11:28:40.086Z,98570.06
2022-09-02T11:31:28.302Z,98568.94
2022-09-02T11:34:17.801Z,98571.28
2022-09-02T11:36:44.377Z,98572.22
2022-09-02T11:39:25.751Z,98558.72
2022-09-02T11:42:29.832Z,98566.09
2022-09-02T11:45:09.394Z,98565.63
2022-09-02T11:47:48.390Z,98558.72
2022-09-02T11:50:37.178Z,98563.72
2022-09-02T11:53:28.416Z,98570.84
2022-09-02T11:56:10.222Z,98566.88
2022-09-02T11:58:47.440Z,98552.94
2022-09-02T12:01:44.046Z,98557.19
2022-09-02T12:04:55.975Z,98551.47
2022-09-02T12:07:08.248Z,98548.03
2022-09-02T12:09:53.092Z,98555.72
2022-09-02T12:12:57.594Z,98552.16
2022-09-02T12:15:23.965Z,98551.03
2022-09-02T12:17:53.499Z,98557.81
2022-09-02T12:20:39.130Z,98550.66
2022-09-02T12:23:07.942Z,98554.28
2022-09-02T12:25:36.357Z,98553.75
2022-09-02T12:28:11.758Z,98549.25
2022-09-02T12:30:55.135Z,98544.69
2022-09-02T12:33:32.921Z,98555.75
2022-09-02T12:36:00.317Z,98547.50
2022-09-02T12:38:33.426Z,98537.00
2022-09-02T12:41:06.131Z,98531.75
2022-09-02T12:43:46.017Z,98538.94
2022-09-02T12:46:34.159Z,98539.50
2022-09-02T12:49:27.877Z,98544.69
2022-09-02T12:52:01.700Z,98539.66
2022-09-02T12:54:43.096Z,98534.66
2022-09-02T12:57:11.021Z,98527.09
2022-09-02T12:59:40.014Z,98520.91
2022-09-02T13:02:29.747Z,98517.44
2022-09-02T13:05:26.714Z,98511.25
2022-09-02T13:08:07.906Z,98508.47
2022-09-02T13:11:12.139Z,98504.16
2022-09-02T13:13:55.679Z,98504.44
2022-09-02T13:16:44.702Z,98504.16
2022-09-02T13:19:27.546Z,98507.34
2022-09-02T13:22:13.207Z,98507.66
2022-09-02T13:25:07.314Z,98505.25
2022-09-02T13:28:02.823Z,98497.53
2022-09-02T13:30:53.397Z,98497.59
2022-09-02T13:33:22.020Z,98485.72
2022-09-02T13:35:54.917Z,98477.38
2022-09-02T13:38:24.816Z,98486.06
2022-09-02T13:40:51.493Z,98472.50
2022-09-02T13:43:20.769Z,98469.72
2022-09-02T13:45:50.967Z,98468.31
2022-09-02T13:48:23.129Z,98462.88
2022-09-02T13:50:53.872Z,98452.22
2022-09-02T13:53:45.975Z,98455.22
2022-09-02T13:56:25.747Z,98452.53
2022-09-02T13:58:56.378Z,98448.63
2022-09-02T14:01:35.065Z,98457.19
2022-09-02T14:04:11.366Z,98446.13
2022-09-02T14:06:43.740Z,98444.75
2022-09-02T14:09:26.983Z,98441.63
2022-09-02T14:11:55.569Z,98431.88
2022-09-02T14:14:25.091Z,98424.56
2022-09-02T14:16:51.634Z,98420.63
2022-09-02T14:19:18.028Z,98418.78
2022-09-02T14:21:49.721Z,98417.72
2022-09-02T14:24:23.133Z,98415.91
2022-09-02T14:26:52.873Z,98409.66
2022-09-02T14:29:20.699Z,98395.94
2022-09-02T14:32:02.923Z,98386.34
2022-09-02T14:34:34.162Z,98396.47
2022-09-02T14:37:00.796Z,98392.91
2022-09-02T14:39:30.492Z,98385.44
2022-09-02T14:42:00.328Z,98382.09
2022-09-02T14:44:31.584Z,98382.56
2022-09-02T14:47:01.643Z,98378.69
2022-09-02T14:49:31.602Z,98380.34
2022-09-02T14:52:02.364Z,98372.69
2022-09-02T14:54:45.244Z,98368.44
2022-09-02T14:57:26.811Z,98369.38
2022-09-02T14:59:53.344Z,98380.78
2022-09-02T15:02:33.966Z,98389.06
2022-09-02T15:05:05.580Z,98389.53
2022-09-02T15:07:32.289Z,98385.47
2022-09-02T15:09:59.031Z,98386.25
2022-09-02T15:12:35.226Z,98391.59
2022-09-02T15:15:01.676Z,98389.34
2022-09-02T15:17:28.461Z,98379.44
2022-09-02T15:19:55.017Z,98369.34
2022-09-02T15:22:23.383Z,98370.19
2022-09-02T15:24:52.577Z,98364.31
2022-09-02T15:27:21.494Z,98370.50
2022-09-02T15:29:48.592Z,98369.53
2022-09-02T15:32:16.543Z,98377.78
2022-09-02T15:34:46.030Z,98371.75
2022-09-02T15:37:14.797Z,98366.44
2022-09-02T15:39:41.421Z,98363.72
2022-09-02T15:42:09.565Z,98370.41
2022-09-02T15:44:37.446Z,98375.72
2022-09-02T15:47:04.073Z,98384.69
2022-09-02T15:49:30.463Z,98388.44
2022-09-02T15:51:58.046Z,98395.16
2022-09-02T15:54:24.521Z,98398.63
2022-09-02T15:56:56.005Z,98398.16
2022-09-02T15:59:22.583Z,98400.34
2022-09-02T16:01:51.406Z,98385.56
2022-09-02T16:04:18.107Z,98394.22
2022-09-02T16:06:47.667Z,98381.44
2022-09-02T16:09:16.205Z,98379.72
2022-09-02T16:11:48.514Z,98387.00
2022-09-02T16:14:15.500Z,98376.44
2022-09-02T16:16:47.989Z,98377.47
2022-09-02T16:19:14.844Z,98368.72
2022-09-02T16:21:43.814Z,98365.31
2022-09-02T16:24:10.883Z,98367.47
2022-09-02T16:26:39.516Z,98364.78
2022-09-02T16:29:08.504Z,98362.38
2022-09-02T16:31:39.417Z,98363.00
2022-09-02T16:34:11.253Z,98355.16
2022-09-02T16:36:43.178Z,98351.06
2022-09-02T16:39:11.526Z,98352.22
2022-09-02T16:41:44.063Z,98352.22
2022-09-02T16:44:21.244Z,98358.00
2022-09-02T16:46:49.436Z,98351.84
2022-09-02T16:49:17.781Z,98361.38
2022-09-02T16:51:46.795Z,98364.44
2022-09-02T16:54:17.775Z,98358.53
2022-09-02T16:56:48.519Z,98362.34
2022-09-02T16:59:17.871Z,98362.63
2022-09-02T17:01:44.358Z,98362.34
2022-09-02T17:04:11.060Z,98366.22
2022-09-02T17:06:42.230Z,98355.91
2022-09-02T17:09:09.478Z,98359.78
2022-09-02T17:11:37.668Z,98350.81
2022-09-02T17:14:09.614Z,98352.22
2022-09-02T17:16:41.856Z,98357.22
2022-09-02T17:19:09.860Z,98359.16
2022-09-02T17:21:38.616Z,98352.38
2022-09-02T17:24:08.083Z,98352.19
2022-09-02T17:26:37.309Z,98353.88
2022-09-02T17:29:21.254Z,98345.50
2022-09-02T17:31:57.912Z,98345.00
2022-09-02T17:34:24.323Z,98341.50
2022-09-02T17:36:51.059Z,98340.19
2022-09-02T17:39:19.654Z,98347.00
2022-09-02T17:41:46.295Z,98345.69
2022-09-02T17:44:14.189Z,98342.72
2022-09-02T17:46:41.822Z,98339.22
2022-09-02T17:49:17.485Z,98339.00
2022-09-02T17:51:44.685Z,98334.94
2022-09-02T17:54:12.717Z,98340.41
2022-09-02T17:56:56.662Z,98341.47
2022-09-02T17:59:41.055Z,98340.91
2022-09-02T18:02:34.294Z,98351.25
2022-09-02T18:05:45.523Z,98349.63
2022-09-02T18:08:27.600Z,98351.81
2022-09-02T18:10:58.110Z,98342.06
2022-09-02T18:13:54.403Z,98338.53
2022-09-02T18:16:29.896Z,98341.50
2022-09-02T18:19:24.904Z,98339.88
2022-09-02T18:22:15.175Z,98346.69
2022-09-02T18:25:10.960Z,98347.75
2022-09-02T18:28:05.413Z,98356.69
2022-09-02T18:31:04.571Z,98356.44
2022-09-02T18:34:05.721Z,98366.72
2022-09-02T18:36:42.218Z,98365.91
2022-09-02T18:39:50.512Z,98368.59
2022-09-02T18:42:44.093Z,98369.13
2022-09-02T18:45:23.835Z,98371.28
2022-09-02T18:47:58.314Z,98361.25
2022-09-02T18:50:47.557Z,98376.09
2022-09-02T18:53:20.351Z,98381.78
2022-09-02T18:55:47.907Z,98387.72
2022-09-02T18:58:37.313Z,98385.84
2022-09-02T19:01:09.694Z,98382.28
2022-09-02T19:03:38.056Z,98384.44
2022-09-02T19:06:07.181Z,98389.81
2022-09-02T19:08:33.860Z,98383.06
2022-09-02T19:11:04.793Z,98384.41
2022-09-02T19:13:43.310Z,98381.44
2022-09-02T19:16:11.102Z,98379.28
2022-09-02T19:18:37.616Z,98386.28
2022-09-02T19:21:04.241Z,98386.81
2022-09-02T19:23:32.101Z,98377.59
2022-09-02T19:25:58.700Z,98380.28
2022-09-02T19:28:25.869Z,98377.88
2022-09-02T19:30:57.729Z,98374.88
2022-09-02T19:33:24.246Z,98376.50
2022-09-02T19:35:50.816Z,98372.13
2022-09-02T19:38:17.330Z,98374.59
2022-09-02T19:40:47.494Z,98375.13
2022-09-02T19:43:22.520Z,98367.53
2022-09-02T19:45:49.178Z,98365.91
2022-09-02T19:48:15.858Z,98373.19
2022-09-02T19:50:45.520Z,98367.50
2022-09-02T19:53:25.712Z,98371.56
2022-09-02T19:55:52.329Z,98362.88
2022-09-02T19:58:21.125Z,98358.59
2022-09-02T20:00:47.760Z,98351.53
2022-09-02T20:03:15.049Z,98353.94
2022-09-02T20:05:41.553Z,98345.75
2022-09-02T20:08:08.108Z,98337.97
2022-09-02T20:10:39.389Z,98336.56
2022-09-02T20:13:06.712Z,98335.75
2022-09-02T20:15:36.935Z,98332.53
2022-09-02T20:18:15.765Z,98343.06
2022-09-02T20:20:48.538Z,98342.78
2022-09-02T20:23:17.771Z,98344.66
2022-09-02T20:26:03.284Z,98340.06
2022-09-02T20:28:54.959Z,98346.00
2022-09-02T20:31:40.121Z,98342.75
2022-09-02T20:34:44.408Z,98340.03
2022-09-02T20:37:29.672Z,98335.72
2022-09-02T20:40:34.491Z,98341.88
2022-09-02T20:43:26.674Z,98329.97
2022-09-02T20:46:13.039Z,98328.63
2022-09-02T20:49:07.820Z,98328.06
2022-09-02T20:51:50.545Z,98332.44
2022-09-02T20:54:21.753Z,98332.38
2022-09-02T20:57:02.863Z,98337.25
2022-09-02T20:59:54.314Z,98331.81
2022-09-02T21:02:26.135Z,98332.88
2022-09-02T21:04:56.147Z,98336.38
2022-09-02T21:07:44.816Z,98338.28
2022-09-02T21:10:42.083Z,98352.59
2022-09-02T21:13:20.067Z,98338.50
2022-09-02T21:15:54.976Z,98334.97
2022-09-02T21:18:49.081Z,98344.44
2022-09-02T21:21:23.355Z,98340.88
2022-09-02T21:23:56.797Z,98335.41
2022-09-02T21:26:53.534Z,98335.88
2022-09-02T21:29:39.373Z,98336.16
2022-09-02T21:32:18.314Z,98340.19
2022-09-02T21:35:00.398Z,98337.47
2022-09-02T21:37:31.675Z,98343.41
2022-09-02T21:40:04.429Z,98342.81
2022-09-02T21:43:05.342Z,98335.22
2022-09-02T21:46:05.181Z,98343.19
2022-09-02T21:48:58.493Z,98328.28
2022-09-02T21:51:41.910Z,98339.38
2022-09-02T21:54:29.780Z,98339.31
2022-09-02T21:57:05.137Z,98348.50
2022-09-02T21:59:50.834Z,98344.63
2022-09-02T22:02:28.493Z,98339.66
2022-09-02T22:05:13.907Z,98337.75
2022-09-02T22:07:50.629Z,98336.97
2022-09-02T22:10:33.836Z,98334.44
2022-09-02T22:13:00.680Z,98328.13
2022-09-02T22:16:04.818Z,98333.19
2022-09-02T22:18:41.195Z,98328.78
2022-09-02T22:21:28.604Z,98330.41
2022-09-02T22:23:55.958Z,98327.63
2022-09-02T22:26:28.558Z,98330.28
2022-09-02T22:29:16.919Z,98337.97
2022-09-02T22:31:48.489Z,98336.44
2022-09-02T22:34:16.578Z,98334.78
2022-09-02T22:36:59.552Z,98336.13
2022-09-02T22:39:53.012Z,98335.28
2022-09-02T22:42:34.341Z,98337.97
2022-09-02T22:45:08.547Z,98337.66
2022-09-02T22:47:37.593Z,98339.06
2022-09-02T22:50:07.998Z,98344.72
2022-09-02T22:52:40.622Z,98341.66
2022-09-02T22:55:12.739Z,98346.00
2022-09-02T22:57:50.626Z,98340.63
2022-09-02T23:00:18.013Z,98337.09
2022-09-02T23:03:02.508Z,98329.25
2022-09-02T23:05:47.657Z,98332.69
2022-09-02T23:08:17.106Z,98325.16
2022-09-02T23:10:52.863Z,98329.91
2022-09-02T23:13:46.976Z,98329.09
2022-09-02T23:16:27.816Z,98323.63
2022-09-02T23:19:31.805Z,98320.28
2022-09-02T23:22:07.662Z,98324.06
2022-09-02T23:24:46.355Z,98332.13
2022-09-02T23:27:24.506Z,98331.06
2022-09-02T23:29:51.078Z,98322.50
2022-09-02T23:33:19.380Z,98323.13
2022-09-02T23:35:59.334Z,98313.75
2022-09-02T23:38:59.818Z,98318.66
2022-09-02T23:41:26.617Z,98302.78
2022-09-02T23:43:53.132Z,98305.31
2022-09-02T23:46:48.601Z,98304.09
2022-09-02T23:49:37.958Z,98302.78
2022-09-02T23:52:24.882Z,98297.22
2022-09-02T23:55:19.886Z,98296.75
2022-09-02T23:58:08.194Z,98302.25
